sensor_id;sensor_type;location;lat;lon;timestamp;P1;durP1;ratioP1;P2;durP2;ratioP2
28246;SDS011;66191;53.178;22.058;2023-03-02T00:00:58;116.10;;;35.08;;
28246;SDS011;66191;53.178;22.058;2023-03-02T00:03:35;103.45;;;33.30;;
28246;SDS011;66191;53.178;22.058;2023-03-02T00:06:08;103.28;;;32.47;;
28246;SDS011;66191;53.178;22.058;2023-03-02T00:08:40;119.50;;;35.95;;
28246;SDS011;66191;53.178;22.058;2023-03-02T00:11:14;117.05;;;33.70;;
28246;SDS011;66191;53.178;22.058;2023-03-02T00:13:45;115.47;;;36.00;;
28246;SDS011;66191;53.178;22.058;2023-03-02T00:16:17;96.53;;;31.60;;
28246;SDS011;66191;53.178;22.058;2023-03-02T00:18:48;86.00;;;29.08;;
28246;SDS011;66191;53.178;22.058;2023-03-02T00:23:51;93.93;;;30.77;;
28246;SDS011;66191;53.178;22.058;2023-03-02T00:26:24;90.70;;;29.27;;
28246;SDS011;66191;53.178;22.058;2023-03-02T00:28:55;94.93;;;30.92;;
28246;SDS011;66191;53.178;22.058;2023-03-02T00:33:57;99.13;;;30.25;;
28246;SDS011;66191;53.178;22.058;2023-03-02T00:39:00;103.93;;;30.05;;
28246;SDS011;66191;53.178;22.058;2023-03-02T00:41:33;89.80;;;28.75;;
28246;SDS011;66191;53.178;22.058;2023-03-02T00:44:05;93.65;;;28.45;;
28246;SDS011;66191;53.178;22.058;2023-03-02T00:46:37;91.95;;;28.38;;
28246;SDS011;66191;53.178;22.058;2023-03-02T00:49:08;94.63;;;30.38;;
28246;SDS011;66191;53.178;22.058;2023-03-02T00:51:39;99.47;;;31.17;;
28246;SDS011;66191;53.178;22.058;2023-03-02T00:54:11;106.25;;;31.80;;
28246;SDS011;66191;53.178;22.058;2023-03-02T00:56:44;92.10;;;30.27;;
28246;SDS011;66191;53.178;22.058;2023-03-02T00:59:17;83.07;;;30.23;;
28246;SDS011;66191;53.178;22.058;2023-03-02T01:02:20;75.55;;;27.00;;
28246;SDS011;66191;53.178;22.058;2023-03-02T01:04:52;84.72;;;29.60;;
28246;SDS011;66191;53.178;22.058;2023-03-02T01:07:24;103.25;;;33.38;;
28246;SDS011;66191;53.178;22.058;2023-03-02T01:09:55;86.50;;;29.80;;
28246;SDS011;66191;53.178;22.058;2023-03-02T01:12:28;83.47;;;28.33;;
28246;SDS011;66191;53.178;22.058;2023-03-02T01:15:01;103.45;;;32.28;;
28246;SDS011;66191;53.178;22.058;2023-03-02T01:17:32;90.70;;;30.05;;
28246;SDS011;66191;53.178;22.058;2023-03-02T01:20:03;76.80;;;26.95;;
28246;SDS011;66191;53.178;22.058;2023-03-02T01:22:35;101.28;;;32.05;;
28246;SDS011;66191;53.178;22.058;2023-03-02T01:25:07;91.95;;;30.52;;
28246;SDS011;66191;53.178;22.058;2023-03-02T01:27:41;87.50;;;30.95;;
28246;SDS011;66191;53.178;22.058;2023-03-02T01:30:13;93.35;;;31.52;;
28246;SDS011;66191;53.178;22.058;2023-03-02T01:32:44;81.32;;;29.83;;
28246;SDS011;66191;53.178;22.058;2023-03-02T01:35:16;80.78;;;29.17;;
28246;SDS011;66191;53.178;22.058;2023-03-02T01:37:47;88.93;;;31.73;;
28246;SDS011;66191;53.178;22.058;2023-03-02T01:40:18;95.45;;;32.50;;
28246;SDS011;66191;53.178;22.058;2023-03-02T01:48:34;90.13;;;30.95;;
28246;SDS011;66191;53.178;22.058;2023-03-02T01:51:15;82.50;;;31.70;;
28246;SDS011;66191;53.178;22.058;2023-03-02T01:53:53;91.45;;;32.20;;
28246;SDS011;66191;53.178;22.058;2023-03-02T01:56:26;77.90;;;29.67;;
28246;SDS011;66191;53.178;22.058;2023-03-02T01:59:05;74.05;;;28.48;;
28246;SDS011;66191;53.178;22.058;2023-03-02T02:01:40;82.28;;;29.38;;
28246;SDS011;66191;53.178;22.058;2023-03-02T02:04:13;90.75;;;29.38;;
28246;SDS011;66191;53.178;22.058;2023-03-02T02:06:47;71.82;;;27.33;;
28246;SDS011;66191;53.178;22.058;2023-03-02T02:09:20;69.72;;;25.10;;
28246;SDS011;66191;53.178;22.058;2023-03-02T02:11:54;77.63;;;28.63;;
28246;SDS011;66191;53.178;22.058;2023-03-02T02:16:58;69.57;;;26.75;;
28246;SDS011;66191;53.178;22.058;2023-03-02T02:19:51;67.43;;;27.25;;
28246;SDS011;66191;53.178;22.058;2023-03-02T02:22:37;66.65;;;27.88;;
28246;SDS011;66191;53.178;22.058;2023-03-02T02:25:19;67.03;;;25.52;;
28246;SDS011;66191;53.178;22.058;2023-03-02T02:28:02;77.43;;;30.38;;
28246;SDS011;66191;53.178;22.058;2023-03-02T02:30:36;73.05;;;28.42;;
28246;SDS011;66191;53.178;22.058;2023-03-02T02:33:11;75.68;;;29.38;;
28246;SDS011;66191;53.178;22.058;2023-03-02T02:35:46;79.32;;;28.02;;
28246;SDS011;66191;53.178;22.058;2023-03-02T02:38:19;73.13;;;28.77;;
28246;SDS011;66191;53.178;22.058;2023-03-02T02:40:52;69.55;;;26.63;;
28246;SDS011;66191;53.178;22.058;2023-03-02T02:43:32;65.82;;;26.33;;
28246;SDS011;66191;53.178;22.058;2023-03-02T02:46:05;80.32;;;30.38;;
28246;SDS011;66191;53.178;22.058;2023-03-02T02:48:36;73.78;;;29.67;;
28246;SDS011;66191;53.178;22.058;2023-03-02T02:51:08;69.20;;;28.38;;
28246;SDS011;66191;53.178;22.058;2023-03-02T02:53:45;82.85;;;31.23;;
28246;SDS011;66191;53.178;22.058;2023-03-02T02:56:28;68.63;;;28.10;;
28246;SDS011;66191;53.178;22.058;2023-03-02T02:59:05;68.85;;;28.42;;
28246;SDS011;66191;53.178;22.058;2023-03-02T03:01:43;74.10;;;30.42;;
28246;SDS011;66191;53.178;22.058;2023-03-02T03:04:17;72.32;;;29.02;;
28246;SDS011;66191;53.178;22.058;2023-03-02T03:06:51;71.53;;;29.15;;
28246;SDS011;66191;53.178;22.058;2023-03-02T03:09:24;72.90;;;28.40;;
28246;SDS011;66191;53.178;22.058;2023-03-02T03:11:56;67.18;;;25.88;;
28246;SDS011;66191;53.178;22.058;2023-03-02T03:14:35;63.83;;;25.63;;
28246;SDS011;66191;53.178;22.058;2023-03-02T03:17:09;57.55;;;23.80;;
28246;SDS011;66191;53.178;22.058;2023-03-02T03:19:49;55.45;;;22.23;;
28246;SDS011;66191;53.178;22.058;2023-03-02T03:22:20;59.17;;;22.30;;
28246;SDS011;66191;53.178;22.058;2023-03-02T03:24:51;59.90;;;24.52;;
28246;SDS011;66191;53.178;22.058;2023-03-02T03:27:22;58.92;;;24.52;;
28246;SDS011;66191;53.178;22.058;2023-03-02T03:29:56;65.03;;;25.50;;
28246;SDS011;66191;53.178;22.058;2023-03-02T03:32:31;59.30;;;24.13;;
28246;SDS011;66191;53.178;22.058;2023-03-02T03:35:05;67.30;;;27.95;;
28246;SDS011;66191;53.178;22.058;2023-03-02T03:37:39;65.65;;;27.10;;
28246;SDS011;66191;53.178;22.058;2023-03-02T03:40:14;60.97;;;25.13;;
28246;SDS011;66191;53.178;22.058;2023-03-02T03:42:45;63.40;;;25.67;;
28246;SDS011;66191;53.178;22.058;2023-03-02T03:45:20;61.38;;;23.27;;
28246;SDS011;66191;53.178;22.058;2023-03-02T03:47:51;58.40;;;23.23;;
28246;SDS011;66191;53.178;22.058;2023-03-02T03:50:22;65.82;;;25.13;;
28246;SDS011;66191;53.178;22.058;2023-03-02T03:52:53;65.10;;;27.13;;
28246;SDS011;66191;53.178;22.058;2023-03-02T03:55:27;55.60;;;23.30;;
28246;SDS011;66191;53.178;22.058;2023-03-02T03:57:58;57.60;;;23.92;;
28246;SDS011;66191;53.178;22.058;2023-03-02T04:00:32;72.18;;;27.15;;
28246;SDS011;66191;53.178;22.058;2023-03-02T04:03:07;61.65;;;25.45;;
28246;SDS011;66191;53.178;22.058;2023-03-02T04:05:39;64.72;;;25.38;;
28246;SDS011;66191;53.178;22.058;2023-03-02T04:08:10;66.10;;;26.45;;
28246;SDS011;66191;53.178;22.058;2023-03-02T04:10:42;63.03;;;25.77;;
28246;SDS011;66191;53.178;22.058;2023-03-02T04:13:13;59.17;;;23.60;;
28246;SDS011;66191;53.178;22.058;2023-03-02T04:15:47;70.03;;;27.40;;
28246;SDS011;66191;53.178;22.058;2023-03-02T04:18:18;52.45;;;23.80;;
28246;SDS011;66191;53.178;22.058;2023-03-02T04:20:49;75.93;;;29.30;;
28246;SDS011;66191;53.178;22.058;2023-03-02T04:25:51;68.32;;;27.52;;
28246;SDS011;66191;53.178;22.058;2023-03-02T04:28:22;74.97;;;30.90;;
28246;SDS011;66191;53.178;22.058;2023-03-02T04:30:56;92.15;;;36.17;;
28246;SDS011;66191;53.178;22.058;2023-03-02T04:33:28;109.53;;;41.28;;
28246;SDS011;66191;53.178;22.058;2023-03-02T04:35:59;64.78;;;25.50;;
28246;SDS011;66191;53.178;22.058;2023-03-02T04:38:30;82.30;;;33.13;;
28246;SDS011;66191;53.178;22.058;2023-03-02T04:41:01;126.15;;;50.80;;
28246;SDS011;66191;53.178;22.058;2023-03-02T04:43:33;93.78;;;38.22;;
28246;SDS011;66191;53.178;22.058;2023-03-02T04:46:06;105.43;;;42.75;;
28246;SDS011;66191;53.178;22.058;2023-03-02T04:48:38;104.18;;;40.85;;
28246;SDS011;66191;53.178;22.058;2023-03-02T04:51:11;102.30;;;39.97;;
28246;SDS011;66191;53.178;22.058;2023-03-02T04:53:50;100.68;;;36.70;;
28246;SDS011;66191;53.178;22.058;2023-03-02T04:56:21;88.28;;;34.08;;
28246;SDS011;66191;53.178;22.058;2023-03-02T04:58:53;83.65;;;33.00;;
28246;SDS011;66191;53.178;22.058;2023-03-02T05:01:27;104.50;;;37.90;;
28246;SDS011;66191;53.178;22.058;2023-03-02T05:03:59;93.70;;;35.78;;
28246;SDS011;66191;53.178;22.058;2023-03-02T05:06:30;85.97;;;33.55;;
28246;SDS011;66191;53.178;22.058;2023-03-02T05:09:04;71.40;;;28.50;;
28246;SDS011;66191;53.178;22.058;2023-03-02T05:11:35;78.15;;;30.77;;
28246;SDS011;66191;53.178;22.058;2023-03-02T05:14:07;70.30;;;25.42;;
28246;SDS011;66191;53.178;22.058;2023-03-02T05:16:43;57.53;;;24.33;;
28246;SDS011;66191;53.178;22.058;2023-03-02T05:19:14;77.43;;;30.15;;
28246;SDS011;66191;53.178;22.058;2023-03-02T05:21:46;84.65;;;30.25;;
28246;SDS011;66191;53.178;22.058;2023-03-02T05:24:17;90.63;;;32.40;;
28246;SDS011;66191;53.178;22.058;2023-03-02T05:26:48;68.40;;;25.25;;
28246;SDS011;66191;53.178;22.058;2023-03-02T05:29:19;74.47;;;24.83;;
28246;SDS011;66191;53.178;22.058;2023-03-02T05:31:53;168.32;;;46.08;;
28246;SDS011;66191;53.178;22.058;2023-03-02T05:34:24;98.05;;;32.40;;
28246;SDS011;66191;53.178;22.058;2023-03-02T05:36:58;119.47;;;38.85;;
28246;SDS011;66191;53.178;22.058;2023-03-02T05:39:32;90.55;;;31.58;;
28246;SDS011;66191;53.178;22.058;2023-03-02T05:42:03;99.05;;;34.63;;
28246;SDS011;66191;53.178;22.058;2023-03-02T05:47:08;121.65;;;37.88;;
28246;SDS011;66191;53.178;22.058;2023-03-02T05:49:39;119.80;;;40.08;;
28246;SDS011;66191;53.178;22.058;2023-03-02T05:52:10;160.82;;;50.13;;
28246;SDS011;66191;53.178;22.058;2023-03-02T05:54:41;178.18;;;52.88;;
28246;SDS011;66191;53.178;22.058;2023-03-02T05:57:12;158.48;;;50.88;;
28246;SDS011;66191;53.178;22.058;2023-03-02T05:59:43;147.43;;;50.83;;
28246;SDS011;66191;53.178;22.058;2023-03-02T06:02:19;176.85;;;54.80;;
28246;SDS011;66191;53.178;22.058;2023-03-02T06:04:50;155.38;;;54.75;;
28246;SDS011;66191;53.178;22.058;2023-03-02T06:07:21;137.98;;;51.78;;
28246;SDS011;66191;53.178;22.058;2023-03-02T06:09:53;121.80;;;46.63;;
28246;SDS011;66191;53.178;22.058;2023-03-02T06:12:25;117.07;;;46.25;;
28246;SDS011;66191;53.178;22.058;2023-03-02T06:14:56;92.32;;;38.22;;
28246;SDS011;66191;53.178;22.058;2023-03-02T06:17:30;116.97;;;49.63;;
28246;SDS011;66191;53.178;22.058;2023-03-02T06:20:00;145.70;;;63.72;;
28246;SDS011;66191;53.178;22.058;2023-03-02T06:22:37;93.43;;;44.13;;
28246;SDS011;66191;53.178;22.058;2023-03-02T06:25:12;107.90;;;53.20;;
28246;SDS011;66191;53.178;22.058;2023-03-02T06:27:45;89.50;;;42.90;;
28246;SDS011;66191;53.178;22.058;2023-03-02T06:30:18;84.03;;;41.10;;
28246;SDS011;66191;53.178;22.058;2023-03-02T06:32:53;69.65;;;33.67;;
28246;SDS011;66191;53.178;22.058;2023-03-02T06:35:25;57.42;;;28.17;;
28246;SDS011;66191;53.178;22.058;2023-03-02T06:37:58;50.05;;;24.95;;
28246;SDS011;66191;53.178;22.058;2023-03-02T06:40:28;62.40;;;27.85;;
28246;SDS011;66191;53.178;22.058;2023-03-02T06:43:00;57.25;;;26.00;;
28246;SDS011;66191;53.178;22.058;2023-03-02T06:48:07;73.47;;;32.10;;
28246;SDS011;66191;53.178;22.058;2023-03-02T06:50:38;62.83;;;26.48;;
28246;SDS011;66191;53.178;22.058;2023-03-02T06:53:09;89.88;;;37.60;;
28246;SDS011;66191;53.178;22.058;2023-03-02T06:55:41;41.10;;;16.80;;
28246;SDS011;66191;53.178;22.058;2023-03-02T06:58:12;61.97;;;23.60;;
28246;SDS011;66191;53.178;22.058;2023-03-02T07:00:43;48.17;;;19.65;;
28246;SDS011;66191;53.178;22.058;2023-03-02T07:03:17;51.95;;;20.27;;
28246;SDS011;66191;53.178;22.058;2023-03-02T07:05:48;46.17;;;17.85;;
28246;SDS011;66191;53.178;22.058;2023-03-02T07:08:20;33.45;;;12.30;;
28246;SDS011;66191;53.178;22.058;2023-03-02T07:10:50;24.08;;;10.15;;
28246;SDS011;66191;53.178;22.058;2023-03-02T07:13:22;22.20;;;8.98;;
28246;SDS011;66191;53.178;22.058;2023-03-02T07:15:56;24.92;;;10.40;;
28246;SDS011;66191;53.178;22.058;2023-03-02T07:18:30;19.92;;;7.85;;
28246;SDS011;66191;53.178;22.058;2023-03-02T07:21:03;18.92;;;7.97;;
28246;SDS011;66191;53.178;22.058;2023-03-02T07:23:36;25.35;;;9.35;;
28246;SDS011;66191;53.178;22.058;2023-03-02T07:26:08;27.45;;;10.85;;
28246;SDS011;66191;53.178;22.058;2023-03-02T07:28:41;27.67;;;10.77;;
28246;SDS011;66191;53.178;22.058;2023-03-02T07:31:12;31.35;;;12.55;;
28246;SDS011;66191;53.178;22.058;2023-03-02T07:33:48;23.73;;;9.43;;
28246;SDS011;66191;53.178;22.058;2023-03-02T07:36:20;21.48;;;9.57;;
28246;SDS011;66191;53.178;22.058;2023-03-02T07:38:53;24.92;;;9.45;;
28246;SDS011;66191;53.178;22.058;2023-03-02T07:41:25;27.38;;;10.15;;
28246;SDS011;66191;53.178;22.058;2023-03-02T07:43:58;32.42;;;10.98;;
28246;SDS011;66191;53.178;22.058;2023-03-02T07:46:29;28.55;;;11.40;;
28246;SDS011;66191;53.178;22.058;2023-03-02T07:49:05;26.23;;;9.70;;
28246;SDS011;66191;53.178;22.058;2023-03-02T07:51:36;24.70;;;9.63;;
28246;SDS011;66191;53.178;22.058;2023-03-02T07:54:08;40.90;;;12.80;;
28246;SDS011;66191;53.178;22.058;2023-03-02T07:56:39;51.30;;;19.13;;
28246;SDS011;66191;53.178;22.058;2023-03-02T07:59:11;32.67;;;16.20;;
28246;SDS011;66191;53.178;22.058;2023-03-02T08:01:42;27.10;;;9.60;;
28246;SDS011;66191;53.178;22.058;2023-03-02T08:04:16;24.35;;;10.90;;
28246;SDS011;66191;53.178;22.058;2023-03-02T08:06:47;22.02;;;8.20;;
28246;SDS011;66191;53.178;22.058;2023-03-02T08:09:18;20.98;;;8.63;;
28246;SDS011;66191;53.178;22.058;2023-03-02T08:11:48;20.75;;;8.68;;
28246;SDS011;66191;53.178;22.058;2023-03-02T08:14:19;16.58;;;7.80;;
28246;SDS011;66191;53.178;22.058;2023-03-02T08:19:24;34.60;;;17.33;;
28246;SDS011;66191;53.178;22.058;2023-03-02T08:21:55;25.52;;;10.63;;
28246;SDS011;66191;53.178;22.058;2023-03-02T08:24:27;286.27;;;116.85;;
28246;SDS011;66191;53.178;22.058;2023-03-02T08:26:58;31.92;;;16.13;;
28246;SDS011;66191;53.178;22.058;2023-03-02T08:29:31;28.98;;;9.25;;
28246;SDS011;66191;53.178;22.058;2023-03-02T08:32:02;23.88;;;10.27;;
28246;SDS011;66191;53.178;22.058;2023-03-02T08:34:36;23.80;;;8.73;;
28246;SDS011;66191;53.178;22.058;2023-03-02T08:37:08;21.42;;;7.93;;
28246;SDS011;66191;53.178;22.058;2023-03-02T08:39:39;36.00;;;13.38;;
28246;SDS011;66191;53.178;22.058;2023-03-02T08:47:12;20.73;;;8.18;;
28246;SDS011;66191;53.178;22.058;2023-03-02T08:49:45;22.70;;;7.05;;
28246;SDS011;66191;53.178;22.058;2023-03-02T08:52:17;32.72;;;8.73;;
28246;SDS011;66191;53.178;22.058;2023-03-02T08:54:48;32.45;;;10.32;;
28246;SDS011;66191;53.178;22.058;2023-03-02T08:57:19;27.23;;;10.88;;
28246;SDS011;66191;53.178;22.058;2023-03-02T08:59:50;39.45;;;19.48;;
28246;SDS011;66191;53.178;22.058;2023-03-02T09:04:55;54.95;;;26.35;;
28246;SDS011;66191;53.178;22.058;2023-03-02T09:07:26;27.98;;;11.85;;
28246;SDS011;66191;53.178;22.058;2023-03-02T09:09:57;44.95;;;13.20;;
28246;SDS011;66191;53.178;22.058;2023-03-02T09:14:59;26.55;;;11.45;;
28246;SDS011;66191;53.178;22.058;2023-03-02T09:17:29;31.50;;;13.05;;
28246;SDS011;66191;53.178;22.058;2023-03-02T09:20:03;37.53;;;18.55;;
28246;SDS011;66191;53.178;22.058;2023-03-02T09:22:35;20.63;;;7.40;;
28246;SDS011;66191;53.178;22.058;2023-03-02T09:25:07;38.75;;;12.65;;
28246;SDS011;66191;53.178;22.058;2023-03-02T09:27:38;21.52;;;8.57;;
28246;SDS011;66191;53.178;22.058;2023-03-02T09:30:10;18.15;;;7.80;;
28246;SDS011;66191;53.178;22.058;2023-03-02T09:32:42;21.10;;;8.15;;
28246;SDS011;66191;53.178;22.058;2023-03-02T09:35:18;32.60;;;12.73;;
28246;SDS011;66191;53.178;22.058;2023-03-02T09:37:48;30.45;;;11.32;;
28246;SDS011;66191;53.178;22.058;2023-03-02T09:40:20;22.10;;;8.93;;
28246;SDS011;66191;53.178;22.058;2023-03-02T09:42:56;18.55;;;6.82;;
28246;SDS011;66191;53.178;22.058;2023-03-02T09:45:49;21.88;;;7.95;;
28246;SDS011;66191;53.178;22.058;2023-03-02T09:48:36;22.20;;;8.40;;
28246;SDS011;66191;53.178;22.058;2023-03-02T09:51:19;39.80;;;16.40;;
28246;SDS011;66191;53.178;22.058;2023-03-02T09:54:06;12.77;;;5.88;;
28246;SDS011;66191;53.178;22.058;2023-03-02T09:56:41;28.13;;;7.93;;
28246;SDS011;66191;53.178;22.058;2023-03-02T09:59:17;25.58;;;9.35;;
28246;SDS011;66191;53.178;22.058;2023-03-02T10:01:55;21.65;;;5.97;;
28246;SDS011;66191;53.178;22.058;2023-03-02T10:04:30;16.33;;;6.72;;
28246;SDS011;66191;53.178;22.058;2023-03-02T10:07:12;19.13;;;7.13;;
28246;SDS011;66191;53.178;22.058;2023-03-02T10:09:45;19.80;;;5.60;;
28246;SDS011;66191;53.178;22.058;2023-03-02T10:12:23;32.72;;;10.80;;
28246;SDS011;66191;53.178;22.058;2023-03-02T10:15:15;23.95;;;7.47;;
28246;SDS011;66191;53.178;22.058;2023-03-02T10:17:54;21.60;;;8.55;;
28246;SDS011;66191;53.178;22.058;2023-03-02T10:20:31;14.90;;;6.30;;
28246;SDS011;66191;53.178;22.058;2023-03-02T10:23:14;24.40;;;6.88;;
28246;SDS011;66191;53.178;22.058;2023-03-02T10:26:08;18.98;;;6.97;;
28246;SDS011;66191;53.178;22.058;2023-03-02T10:28:59;11.38;;;5.20;;
28246;SDS011;66191;53.178;22.058;2023-03-02T10:31:35;13.38;;;5.05;;
28246;SDS011;66191;53.178;22.058;2023-03-02T10:34:09;17.13;;;5.45;;
28246;SDS011;66191;53.178;22.058;2023-03-02T10:36:42;20.15;;;6.15;;
28246;SDS011;66191;53.178;22.058;2023-03-02T10:39:18;13.15;;;6.13;;
28246;SDS011;66191;53.178;22.058;2023-03-02T10:41:50;14.77;;;4.45;;
28246;SDS011;66191;53.178;22.058;2023-03-02T10:44:24;12.80;;;5.32;;
28246;SDS011;66191;53.178;22.058;2023-03-02T10:46:58;12.68;;;5.05;;
28246;SDS011;66191;53.178;22.058;2023-03-02T10:49:30;10.25;;;4.70;;
28246;SDS011;66191;53.178;22.058;2023-03-02T10:52:03;16.45;;;5.72;;
28246;SDS011;66191;53.178;22.058;2023-03-02T10:54:38;25.98;;;11.13;;
28246;SDS011;66191;53.178;22.058;2023-03-02T10:57:21;15.85;;;6.28;;
28246;SDS011;66191;53.178;22.058;2023-03-02T10:59:58;315.08;;;158.95;;
28246;SDS011;66191;53.178;22.058;2023-03-02T11:02:32;128.88;;;59.22;;
28246;SDS011;66191;53.178;22.058;2023-03-02T11:05:21;70.90;;;46.65;;
28246;SDS011;66191;53.178;22.058;2023-03-02T11:07:56;33.10;;;17.77;;
28246;SDS011;66191;53.178;22.058;2023-03-02T11:10:32;14.77;;;8.57;;
28246;SDS011;66191;53.178;22.058;2023-03-02T11:13:14;16.02;;;7.03;;
28246;SDS011;66191;53.178;22.058;2023-03-02T11:15:48;51.42;;;41.35;;
28246;SDS011;66191;53.178;22.058;2023-03-02T11:18:23;13.13;;;4.50;;
28246;SDS011;66191;53.178;22.058;2023-03-02T11:20:59;17.08;;;7.97;;
28246;SDS011;66191;53.178;22.058;2023-03-02T11:23:35;21.02;;;9.05;;
28246;SDS011;66191;53.178;22.058;2023-03-02T11:26:17;64.53;;;37.17;;
28246;SDS011;66191;53.178;22.058;2023-03-02T11:28:53;14.23;;;7.97;;
28246;SDS011;66191;53.178;22.058;2023-03-02T11:31:32;10.35;;;4.13;;
28246;SDS011;66191;53.178;22.058;2023-03-02T11:37:14;248.15;;;134.02;;
28246;SDS011;66191;53.178;22.058;2023-03-02T11:39:59;349.90;;;240.57;;
28246;SDS011;66191;53.178;22.058;2023-03-02T11:42:38;30.67;;;16.15;;
28246;SDS011;66191;53.178;22.058;2023-03-02T11:45:15;13.50;;;7.32;;
28246;SDS011;66191;53.178;22.058;2023-03-02T11:47:51;16.10;;;8.90;;
28246;SDS011;66191;53.178;22.058;2023-03-02T11:50:30;25.40;;;9.10;;
28246;SDS011;66191;53.178;22.058;2023-03-02T11:53:05;24.02;;;10.98;;
28246;SDS011;66191;53.178;22.058;2023-03-02T11:55:42;14.07;;;6.82;;
28246;SDS011;66191;53.178;22.058;2023-03-02T11:58:19;16.17;;;4.70;;
28246;SDS011;66191;53.178;22.058;2023-03-02T12:00:53;23.08;;;7.82;;
28246;SDS011;66191;53.178;22.058;2023-03-02T12:03:35;20.05;;;4.60;;
28246;SDS011;66191;53.178;22.058;2023-03-02T12:06:24;22.05;;;7.07;;
28246;SDS011;66191;53.178;22.058;2023-03-02T12:09:11;11.68;;;3.42;;
28246;SDS011;66191;53.178;22.058;2023-03-02T12:11:58;8.80;;;3.50;;
28246;SDS011;66191;53.178;22.058;2023-03-02T12:14:42;18.88;;;7.40;;
28246;SDS011;66191;53.178;22.058;2023-03-02T12:17:18;20.83;;;6.93;;
28246;SDS011;66191;53.178;22.058;2023-03-02T12:19:52;33.58;;;8.38;;
28246;SDS011;66191;53.178;22.058;2023-03-02T12:22:25;24.83;;;8.07;;
28246;SDS011;66191;53.178;22.058;2023-03-02T12:24:59;8.18;;;4.03;;
28246;SDS011;66191;53.178;22.058;2023-03-02T12:27:34;7.65;;;3.03;;
28246;SDS011;66191;53.178;22.058;2023-03-02T12:30:19;8.00;;;2.90;;
28246;SDS011;66191;53.178;22.058;2023-03-02T12:33:00;39.40;;;7.63;;
28246;SDS011;66191;53.178;22.058;2023-03-02T12:35:48;10.80;;;3.33;;
28246;SDS011;66191;53.178;22.058;2023-03-02T12:38:26;10.27;;;4.80;;
28246;SDS011;66191;53.178;22.058;2023-03-02T12:41:03;12.90;;;4.10;;
28246;SDS011;66191;53.178;22.058;2023-03-02T12:43:55;14.32;;;3.83;;
28246;SDS011;66191;53.178;22.058;2023-03-02T12:46:42;17.00;;;5.00;;
28246;SDS011;66191;53.178;22.058;2023-03-02T12:49:26;11.23;;;5.18;;
28246;SDS011;66191;53.178;22.058;2023-03-02T12:52:21;15.07;;;4.65;;
28246;SDS011;66191;53.178;22.058;2023-03-02T12:55:01;18.83;;;5.70;;
28246;SDS011;66191;53.178;22.058;2023-03-02T12:57:36;24.85;;;6.60;;
28246;SDS011;66191;53.178;22.058;2023-03-02T13:00:12;8.82;;;3.00;;
28246;SDS011;66191;53.178;22.058;2023-03-02T13:02:50;13.85;;;4.40;;
28246;SDS011;66191;53.178;22.058;2023-03-02T13:05:23;26.45;;;10.90;;
28246;SDS011;66191;53.178;22.058;2023-03-02T13:07:57;14.48;;;4.20;;
28246;SDS011;66191;53.178;22.058;2023-03-02T13:10:33;14.23;;;4.15;;
28246;SDS011;66191;53.178;22.058;2023-03-02T13:13:12;23.88;;;7.47;;
28246;SDS011;66191;53.178;22.058;2023-03-02T13:15:49;29.80;;;11.38;;
28246;SDS011;66191;53.178;22.058;2023-03-02T13:18:26;36.85;;;10.75;;
28246;SDS011;66191;53.178;22.058;2023-03-02T13:21:00;24.33;;;8.98;;
28246;SDS011;66191;53.178;22.058;2023-03-02T13:23:33;9.63;;;3.83;;
28246;SDS011;66191;53.178;22.058;2023-03-02T13:26:04;9.00;;;3.42;;
28246;SDS011;66191;53.178;22.058;2023-03-02T13:28:36;9.13;;;2.90;;
28246;SDS011;66191;53.178;22.058;2023-03-02T13:31:15;6.80;;;3.38;;
28246;SDS011;66191;53.178;22.058;2023-03-02T13:33:52;10.75;;;5.47;;
28246;SDS011;66191;53.178;22.058;2023-03-02T13:36:26;10.45;;;4.25;;
28246;SDS011;66191;53.178;22.058;2023-03-02T13:38:59;8.13;;;3.70;;
28246;SDS011;66191;53.178;22.058;2023-03-02T13:41:33;22.02;;;4.55;;
28246;SDS011;66191;53.178;22.058;2023-03-02T13:44:11;11.43;;;4.88;;
28246;SDS011;66191;53.178;22.058;2023-03-02T13:46:47;39.58;;;13.48;;
28246;SDS011;66191;53.178;22.058;2023-03-02T13:49:27;9.32;;;3.60;;
28246;SDS011;66191;53.178;22.058;2023-03-02T13:52:00;14.32;;;5.32;;
28246;SDS011;66191;53.178;22.058;2023-03-02T13:54:35;15.77;;;5.82;;
28246;SDS011;66191;53.178;22.058;2023-03-02T13:57:10;8.60;;;3.13;;
28246;SDS011;66191;53.178;22.058;2023-03-02T13:59:46;12.82;;;4.57;;
28246;SDS011;66191;53.178;22.058;2023-03-02T14:02:19;8.98;;;3.20;;
28246;SDS011;66191;53.178;22.058;2023-03-02T14:04:56;18.15;;;6.55;;
28246;SDS011;66191;53.178;22.058;2023-03-02T14:07:27;14.07;;;5.28;;
28246;SDS011;66191;53.178;22.058;2023-03-02T14:09:58;22.25;;;8.93;;
28246;SDS011;66191;53.178;22.058;2023-03-02T14:12:30;23.40;;;8.00;;
28246;SDS011;66191;53.178;22.058;2023-03-02T14:15:02;21.45;;;8.88;;
28246;SDS011;66191;53.178;22.058;2023-03-02T14:17:34;21.83;;;7.65;;
28246;SDS011;66191;53.178;22.058;2023-03-02T14:20:08;37.67;;;13.80;;
28246;SDS011;66191;53.178;22.058;2023-03-02T14:22:41;69.90;;;25.65;;
28246;SDS011;66191;53.178;22.058;2023-03-02T14:25:13;63.40;;;22.27;;
28246;SDS011;66191;53.178;22.058;2023-03-02T14:27:45;28.42;;;12.30;;
28246;SDS011;66191;53.178;22.058;2023-03-02T14:30:17;16.88;;;7.63;;
28246;SDS011;66191;53.178;22.058;2023-03-02T14:32:50;22.50;;;8.88;;
28246;SDS011;66191;53.178;22.058;2023-03-02T14:35:23;23.10;;;8.23;;
28246;SDS011;66191;53.178;22.058;2023-03-02T14:37:55;20.20;;;7.65;;
28246;SDS011;66191;53.178;22.058;2023-03-02T14:40:26;21.05;;;9.27;;
28246;SDS011;66191;53.178;22.058;2023-03-02T14:42:57;21.13;;;8.90;;
28246;SDS011;66191;53.178;22.058;2023-03-02T14:45:29;16.50;;;7.03;;
28246;SDS011;66191;53.178;22.058;2023-03-02T14:48:00;19.17;;;6.70;;
28246;SDS011;66191;53.178;22.058;2023-03-02T14:50:36;20.20;;;8.65;;
28246;SDS011;66191;53.178;22.058;2023-03-02T14:53:09;25.40;;;8.68;;
28246;SDS011;66191;53.178;22.058;2023-03-02T14:55:44;34.85;;;14.68;;
28246;SDS011;66191;53.178;22.058;2023-03-02T14:58:17;38.63;;;15.77;;
28246;SDS011;66191;53.178;22.058;2023-03-02T15:00:49;26.83;;;11.38;;
28246;SDS011;66191;53.178;22.058;2023-03-02T15:03:20;41.90;;;16.63;;
28246;SDS011;66191;53.178;22.058;2023-03-02T15:05:54;36.88;;;14.70;;
28246;SDS011;66191;53.178;22.058;2023-03-02T15:08:28;27.48;;;12.32;;
28246;SDS011;66191;53.178;22.058;2023-03-02T15:10:59;46.85;;;19.23;;
28246;SDS011;66191;53.178;22.058;2023-03-02T15:13:30;54.25;;;23.55;;
28246;SDS011;66191;53.178;22.058;2023-03-02T15:16:01;52.85;;;22.77;;
28246;SDS011;66191;53.178;22.058;2023-03-02T15:18:32;47.38;;;20.70;;
28246;SDS011;66191;53.178;22.058;2023-03-02T15:21:06;56.75;;;26.73;;
28246;SDS011;66191;53.178;22.058;2023-03-02T15:23:41;62.22;;;28.08;;
28246;SDS011;66191;53.178;22.058;2023-03-02T15:26:12;192.30;;;97.45;;
28246;SDS011;66191;53.178;22.058;2023-03-02T15:28:43;158.27;;;75.85;;
28246;SDS011;66191;53.178;22.058;2023-03-02T15:31:15;338.77;;;170.85;;